Chahbahar, Iran
Current Conditions -  °F | °C
As of 4:00 PM on Sunday 23 Nov 2014 (Local Time) from OIZI Reporting Station
Clear Clear  
Wind Chill: 81°   Ceiling: Unl
Heat Index: 81°   Visibility: 6mi
Dew Point: 39°   Wind: 7mph
Humidity: 23%   Direction: 280°W
Pressure: 29.91"   Gusts: NA
Location:  25.28°N, 60.62°E
Report Text: OIZI 231300Z 28006KT CAVOK 27/04 Q1013
Loading
Personal Weather Stations






























Interactive Weather Map New forecast layout! Learn more

10-Day Weather Forecast

Advertisements
Track Severe Weather on mobile